createdAt,value
2022-12-31T00:01:43.927Z,99795.44
2022-12-31T00:04:11.827Z,99798.78
2022-12-31T00:06:39.712Z,99796.25
2022-12-31T00:09:09.502Z,99816.41
2022-12-31T00:11:37.658Z,99823.28
2022-12-31T00:14:05.916Z,99822.09
2022-12-31T00:16:36.478Z,99822.72
2022-12-31T00:19:05.843Z,99823.22
2022-12-31T00:21:34.481Z,99816.00
2022-12-31T00:24:02.731Z,99816.66
2022-12-31T00:26:33.707Z,99820.19
2022-12-31T00:29:02.457Z,99825.34
2022-12-31T00:31:31.588Z,99824.19
2022-12-31T00:34:00.055Z,99832.56
2022-12-31T00:36:30.178Z,99829.03
2022-12-31T00:38:59.096Z,99852.00
2022-12-31T00:41:27.599Z,99845.56
2022-12-31T00:43:57.064Z,99851.59
2022-12-31T00:46:25.280Z,99855.03
2022-12-31T00:48:53.374Z,99852.44
2022-12-31T00:51:22.704Z,99868.41
2022-12-31T00:53:50.947Z,99876.19
2022-12-31T00:56:21.350Z,99884.81
2022-12-31T00:58:49.642Z,99866.41
2022-12-31T01:01:21.501Z,99864.63
2022-12-31T01:03:51.302Z,99879.63
2022-12-31T01:06:19.617Z,99876.84
2022-12-31T01:08:49.401Z,99888.81
2022-12-31T01:11:22.290Z,99897.41
2022-12-31T01:13:52.352Z,99894.84
2022-12-31T01:16:23.372Z,99911.09
2022-12-31T01:18:51.662Z,99900.69
2022-12-31T01:21:20.135Z,99903.94
2022-12-31T01:23:47.992Z,99885.78
2022-12-31T01:26:17.702Z,99905.53
2022-12-31T01:28:45.535Z,99903.56
2022-12-31T01:31:15.124Z,99923.25
2022-12-31T01:33:44.768Z,99922.09
2022-12-31T01:36:13.613Z,99919.59
2022-12-31T01:38:41.921Z,99930.84
2022-12-31T01:41:12.702Z,99932.75
2022-12-31T01:43:46.285Z,99950.22
2022-12-31T01:46:16.894Z,99931.94
2022-12-31T01:48:46.602Z,99932.06
2022-12-31T01:51:14.384Z,99939.88
2022-12-31T01:53:42.528Z,99939.34
2022-12-31T01:56:10.430Z,99931.94
2022-12-31T01:58:41.496Z,99931.47
2022-12-31T02:01:10.761Z,99931.88
2022-12-31T02:03:38.587Z,99928.31
2022-12-31T02:06:11.147Z,99929.59
2022-12-31T02:08:42.108Z,99922.53
2022-12-31T02:11:28.483Z,99923.41
2022-12-31T02:13:59.019Z,99936.31
2022-12-31T02:16:32.193Z,99943.19
2022-12-31T02:19:09.907Z,99928.16
2022-12-31T02:21:55.407Z,99938.28
2022-12-31T02:24:37.304Z,99942.44
2022-12-31T02:27:08.616Z,99935.41
2022-12-31T02:30:01.622Z,99940.47
2022-12-31T02:32:35.879Z,99941.19
2022-12-31T02:35:09.011Z,99942.06
2022-12-31T02:37:37.994Z,99944.38
2022-12-31T02:40:09.847Z,99946.00
2022-12-31T02:42:37.731Z,99946.72
2022-12-31T02:45:08.510Z,99938.75
2022-12-31T02:47:48.292Z,99936.38
2022-12-31T02:50:28.980Z,99948.50
2022-12-31T02:53:04.667Z,99943.28
2022-12-31T02:55:37.795Z,99948.25
2022-12-31T02:58:14.277Z,99946.63
2022-12-31T03:01:04.414Z,99945.53
2022-12-31T03:03:32.766Z,99948.25
2022-12-31T03:06:03.181Z,99947.50
2022-12-31T03:08:31.220Z,99950.00
2022-12-31T03:10:59.091Z,99942.94
2022-12-31T03:13:26.410Z,99954.00
2022-12-31T03:15:55.699Z,99945.34
2022-12-31T03:18:43.744Z,99960.75
2022-12-31T03:21:30.507Z,99957.94
2022-12-31T03:24:15.740Z,99962.38
2022-12-31T03:26:43.741Z,99970.38
2022-12-31T03:29:11.643Z,99963.44
2022-12-31T03:31:41.416Z,99947.28
2022-12-31T03:34:09.383Z,99968.94
2022-12-31T03:36:37.244Z,99968.19
2022-12-31T03:39:06.035Z,99965.19
2022-12-31T03:41:33.912Z,99961.84
2022-12-31T03:44:01.758Z,99968.72
2022-12-31T03:46:29.727Z,99961.75
2022-12-31T03:48:59.031Z,99948.84
2022-12-31T03:51:26.928Z,99958.28
2022-12-31T03:53:54.792Z,99950.97
2022-12-31T03:56:22.805Z,99961.69
2022-12-31T03:58:50.827Z,99968.28
2022-12-31T04:01:19.621Z,99974.28
2022-12-31T04:03:47.599Z,99967.25
2022-12-31T04:06:16.923Z,99972.75
2022-12-31T04:08:47.710Z,99970.84
2022-12-31T04:11:20.652Z,99967.41
2022-12-31T04:13:49.012Z,99958.47
2022-12-31T04:16:16.877Z,99954.94
2022-12-31T04:18:44.809Z,99954.00
2022-12-31T04:21:12.637Z,99951.44
2022-12-31T04:23:42.646Z,99959.44
2022-12-31T04:26:10.530Z,99963.09
2022-12-31T04:28:38.382Z,99951.84
2022-12-31T04:31:06.580Z,99952.69
2022-12-31T04:33:34.474Z,99956.41
2022-12-31T04:36:02.420Z,99960.84
2022-12-31T04:38:30.551Z,99952.97
2022-12-31T04:41:18.126Z,99952.06
2022-12-31T04:43:47.479Z,99960.00
2022-12-31T04:46:15.812Z,99964.22
2022-12-31T04:48:43.934Z,99957.19
2022-12-31T04:51:12.152Z,99958.97
2022-12-31T04:53:40.049Z,99966.50
2022-12-31T04:56:11.925Z,99956.25
2022-12-31T04:58:40.666Z,99969.13
2022-12-31T05:01:10.126Z,99964.63
2022-12-31T05:03:38.511Z,99968.25
2022-12-31T05:06:07.883Z,99965.66
2022-12-31T05:08:36.180Z,99967.44
2022-12-31T05:11:04.087Z,99963.91
2022-12-31T05:13:33.847Z,99971.63
2022-12-31T05:16:02.073Z,99979.50
2022-12-31T05:18:30.396Z,99979.88
2022-12-31T05:20:58.368Z,99986.69
2022-12-31T05:23:26.902Z,99988.41
2022-12-31T05:25:55.292Z,99990.94
2022-12-31T05:28:23.221Z,99993.41
2022-12-31T05:30:52.511Z,99988.34
2022-12-31T05:33:20.671Z,99994.41
2022-12-31T05:35:48.525Z,100005.69
2022-12-31T05:38:16.472Z,100011.44
2022-12-31T05:40:44.393Z,100011.38
2022-12-31T05:43:12.255Z,100020.38
2022-12-31T05:45:40.110Z,100014.84
2022-12-31T05:48:09.355Z,100003.72
2022-12-31T05:50:37.259Z,100012.47
2022-12-31T05:53:05.369Z,100010.81
2022-12-31T05:55:33.261Z,100011.88
2022-12-31T05:58:01.068Z,100016.38
2022-12-31T06:00:28.995Z,100018.03
2022-12-31T06:02:57.068Z,100006.00
2022-12-31T06:05:27.695Z,99999.63
2022-12-31T06:07:55.525Z,99989.41
2022-12-31T06:10:23.415Z,100006.78
2022-12-31T06:12:51.332Z,100005.84
2022-12-31T06:15:19.593Z,100001.88
2022-12-31T06:17:47.512Z,99991.94
2022-12-31T06:20:15.433Z,99994.75
2022-12-31T06:22:44.633Z,99986.97
2022-12-31T06:25:12.482Z,99972.19
2022-12-31T06:27:40.449Z,99964.44
2022-12-31T06:30:09.914Z,99968.00
2022-12-31T06:32:39.336Z,99967.16
2022-12-31T06:35:08.071Z,99951.56
2022-12-31T06:37:36.294Z,99940.28
2022-12-31T06:40:06.754Z,99949.78
2022-12-31T06:42:34.732Z,99926.28
2022-12-31T06:45:02.706Z,99916.06
2022-12-31T06:47:30.571Z,99917.81
2022-12-31T06:49:58.470Z,99925.78
2022-12-31T06:52:26.406Z,99920.28
2022-12-31T06:54:54.824Z,99929.09
2022-12-31T06:57:24.749Z,99949.06
2022-12-31T06:59:53.200Z,99950.84
2022-12-31T07:02:31.275Z,99946.25
2022-12-31T07:05:10.027Z,99947.09
2022-12-31T07:07:46.262Z,99955.78
2022-12-31T07:10:29.009Z,99952.25
2022-12-31T07:13:06.639Z,99953.31
2022-12-31T07:15:46.479Z,99956.63
2022-12-31T07:18:24.182Z,99954.97
2022-12-31T07:20:52.732Z,99950.72
2022-12-31T07:23:21.223Z,99946.16
2022-12-31T07:25:56.044Z,99954.00
2022-12-31T07:28:38.788Z,99942.81
2022-12-31T07:31:09.261Z,99946.31
2022-12-31T07:33:47.409Z,99947.00
2022-12-31T07:36:24.798Z,99943.81
2022-12-31T07:38:56.129Z,99948.13
2022-12-31T07:41:43.852Z,99946.56
2022-12-31T07:44:21.589Z,99949.03
2022-12-31T07:46:55.648Z,99950.88
2022-12-31T07:49:24.841Z,99954.13
2022-12-31T07:51:53.292Z,99972.41
2022-12-31T07:54:21.270Z,99965.50
2022-12-31T07:56:49.806Z,99967.88
2022-12-31T07:59:28.713Z,99959.19
2022-12-31T08:02:00.831Z,99954.97
2022-12-31T08:04:31.988Z,99934.97
2022-12-31T08:07:05.827Z,99943.16
2022-12-31T08:09:40.993Z,99943.38
2022-12-31T08:12:09.809Z,99932.53
2022-12-31T08:14:45.146Z,99937.75
2022-12-31T08:17:14.501Z,99933.56
2022-12-31T08:19:42.960Z,99934.50
2022-12-31T08:22:23.224Z,99938.81
2022-12-31T08:25:00.296Z,99936.97
2022-12-31T08:27:36.266Z,99929.94
2022-12-31T08:30:09.018Z,99916.06
2022-12-31T08:32:40.952Z,99916.72
2022-12-31T08:35:20.347Z,99917.72
2022-12-31T08:37:54.479Z,99920.28
2022-12-31T08:40:26.416Z,99925.47
2022-12-31T08:43:08.177Z,99915.69
2022-12-31T08:45:39.567Z,99924.56
2022-12-31T08:48:17.406Z,99926.31
2022-12-31T08:50:45.676Z,99928.91
2022-12-31T08:53:13.972Z,99928.00
2022-12-31T08:55:43.127Z,99930.47
2022-12-31T08:58:22.072Z,99937.34
2022-12-31T09:00:54.549Z,99932.75
2022-12-31T09:03:41.008Z,99932.13
2022-12-31T09:06:14.724Z,99932.13
2022-12-31T09:08:48.909Z,99936.53
2022-12-31T09:11:23.410Z,99952.13
2022-12-31T09:14:04.641Z,99956.41
2022-12-31T09:16:40.190Z,99954.28
2022-12-31T09:19:09.757Z,99959.34
2022-12-31T09:21:38.121Z,99962.34
2022-12-31T09:24:09.535Z,99956.47
2022-12-31T09:26:45.453Z,99949.91
2022-12-31T09:29:24.286Z,99956.81
2022-12-31T09:31:57.043Z,99956.06
2022-12-31T09:34:28.317Z,99969.13
2022-12-31T09:36:58.848Z,99979.22
2022-12-31T09:39:34.638Z,99986.09
2022-12-31T09:42:39.891Z,99997.38
2022-12-31T09:45:41.469Z,99998.09
2022-12-31T09:48:42.256Z,100017.28
2022-12-31T09:51:25.692Z,100024.94
2022-12-31T09:54:25.181Z,100032.91
2022-12-31T09:57:12.865Z,100040.31
2022-12-31T09:59:47.822Z,100039.72
2022-12-31T10:02:24.360Z,100041.16
2022-12-31T10:05:19.368Z,100044.84
2022-12-31T10:07:53.861Z,100047.97
2022-12-31T10:10:24.565Z,100044.25
2022-12-31T10:13:12.551Z,100036.22
2022-12-31T10:16:03.739Z,100023.97
2022-12-31T10:18:45.185Z,100025.31
2022-12-31T10:21:22.325Z,100024.69
2022-12-31T10:24:10.564Z,100032.28
2022-12-31T10:26:52.896Z,100026.03
2022-12-31T10:29:26.476Z,100024.16
2022-12-31T10:32:05.451Z,100030.34
2022-12-31T10:34:43.037Z,100028.28
2022-12-31T10:37:16.256Z,100027.84
2022-12-31T10:39:51.009Z,100023.38
2022-12-31T10:42:44.754Z,100030.88
2022-12-31T10:45:47.450Z,100046.00
2022-12-31T10:48:36.718Z,100026.94
2022-12-31T10:51:26.963Z,100029.63
2022-12-31T10:54:11.967Z,100028.81
2022-12-31T10:57:06.941Z,100014.97
2022-12-31T11:00:03.944Z,100022.53
2022-12-31T11:02:56.575Z,100009.75
2022-12-31T11:05:57.943Z,100015.91
2022-12-31T11:08:45.818Z,100013.44
2022-12-31T11:11:23.454Z,100004.97
2022-12-31T11:14:27.672Z,99992.22
2022-12-31T11:17:08.068Z,99993.47
2022-12-31T11:19:42.178Z,99986.16
2022-12-31T11:22:27.068Z,99995.09
2022-12-31T11:25:22.517Z,99997.53
2022-12-31T11:28:03.490Z,99982.72
2022-12-31T11:30:38.415Z,99981.75
2022-12-31T11:33:17.814Z,99989.44
2022-12-31T11:36:04.819Z,99981.19
2022-12-31T11:38:37.183Z,99978.59
2022-12-31T11:41:07.834Z,99994.94
2022-12-31T11:43:40.912Z,99987.19
2022-12-31T11:46:41.386Z,99983.59
2022-12-31T11:49:41.913Z,99969.59
2022-12-31T11:52:46.850Z,99980.25
2022-12-31T11:55:29.751Z,99967.84
2022-12-31T11:58:00.899Z,99960.81
2022-12-31T12:00:30.615Z,99948.63
2022-12-31T12:03:00.562Z,99945.31
2022-12-31T12:05:29.552Z,99945.13
2022-12-31T12:07:57.603Z,99949.34
2022-12-31T12:10:35.242Z,99955.28
2022-12-31T12:13:13.202Z,99945.59
2022-12-31T12:15:44.447Z,99939.72
2022-12-31T12:18:24.747Z,99933.28
2022-12-31T12:20:52.936Z,99932.44
2022-12-31T12:23:25.395Z,99941.19
2022-12-31T12:25:53.802Z,99938.06
2022-12-31T12:28:23.620Z,99946.19
2022-12-31T12:30:59.140Z,99941.06
2022-12-31T12:33:29.611Z,99958.97
2022-12-31T12:36:08.927Z,99953.63
2022-12-31T12:38:37.619Z,99949.91
2022-12-31T12:41:07.653Z,99936.44
2022-12-31T12:43:37.170Z,99944.72
2022-12-31T12:46:07.957Z,99947.69
2022-12-31T12:48:38.698Z,99933.78
2022-12-31T12:51:19.997Z,99932.34
2022-12-31T12:53:55.054Z,99925.16
2022-12-31T12:56:32.045Z,99913.75
2022-12-31T12:59:27.651Z,99915.75
2022-12-31T13:02:04.283Z,99921.59
2022-12-31T13:04:44.742Z,99927.44
2022-12-31T13:07:24.132Z,99916.97
2022-12-31T13:10:03.384Z,99922.59
2022-12-31T13:13:05.093Z,99924.06
2022-12-31T13:15:30.052Z,99922.53
2022-12-31T13:18:06.102Z,99922.88
2022-12-31T13:20:37.689Z,99925.63
2022-12-31T13:23:11.456Z,99913.59
2022-12-31T13:25:49.162Z,99909.97
2022-12-31T13:28:17.839Z,99908.94
2022-12-31T13:30:47.877Z,99909.69
2022-12-31T13:33:19.206Z,99909.41
2022-12-31T13:35:50.235Z,99918.94
2022-12-31T13:38:21.539Z,99904.19
2022-12-31T13:40:55.018Z,99903.00
2022-12-31T13:43:27.724Z,99892.88
2022-12-31T13:46:03.075Z,99901.53
2022-12-31T13:48:37.168Z,99894.53
2022-12-31T13:51:11.166Z,99903.69
2022-12-31T13:53:42.724Z,99919.00
2022-12-31T13:56:13.982Z,99919.28
2022-12-31T13:58:44.626Z,99926.06
2022-12-31T14:01:17.395Z,99934.66
2022-12-31T14:03:53.177Z,99925.06
2022-12-31T14:06:26.339Z,99936.06
2022-12-31T14:08:54.305Z,99933.38
2022-12-31T14:11:37.755Z,99933.63
2022-12-31T14:14:15.867Z,99940.22
2022-12-31T14:16:48.822Z,99951.28
2022-12-31T14:19:30.691Z,99942.06
2022-12-31T14:22:03.863Z,99966.28
2022-12-31T14:24:41.468Z,99963.66
2022-12-31T14:27:11.854Z,99972.88
2022-12-31T14:29:42.755Z,99985.63
2022-12-31T14:32:39.121Z,99975.50
2022-12-31T14:35:20.237Z,99981.72
2022-12-31T14:37:54.040Z,100002.06
2022-12-31T14:40:28.017Z,99990.03
2022-12-31T14:43:06.635Z,100007.59
2022-12-31T14:45:45.757Z,100005.06
2022-12-31T14:48:22.485Z,99999.00
2022-12-31T14:50:52.076Z,99990.22
2022-12-31T14:53:24.002Z,99981.53
2022-12-31T14:55:59.037Z,99993.84
2022-12-31T14:58:32.531Z,100013.22
2022-12-31T15:01:01.843Z,99991.53
2022-12-31T15:03:45.512Z,99999.22
2022-12-31T15:06:33.227Z,100013.13
2022-12-31T15:09:08.710Z,100015.19
2022-12-31T15:12:05.213Z,99993.84
2022-12-31T15:14:47.610Z,100002.34
2022-12-31T15:17:24.828Z,100009.72
2022-12-31T15:20:23.577Z,100003.50
2022-12-31T15:22:53.687Z,100002.53
2022-12-31T15:25:23.851Z,100000.53
2022-12-31T15:27:51.935Z,100000.38
2022-12-31T15:30:35.400Z,100006.41
2022-12-31T15:33:04.669Z,100008.72
2022-12-31T15:35:44.557Z,100008.59
2022-12-31T15:38:31.030Z,100025.31
2022-12-31T15:40:59.711Z,100017.75
2022-12-31T15:43:34.788Z,100015.13
2022-12-31T15:46:03.399Z,100038.19
2022-12-31T15:48:36.358Z,100038.88
2022-12-31T15:51:04.369Z,100043.25
2022-12-31T15:53:35.985Z,100047.56
2022-12-31T15:56:04.355Z,100041.56
2022-12-31T15:58:35.686Z,100026.81
2022-12-31T16:01:10.908Z,100032.94
2022-12-31T16:03:44.109Z,100043.72
2022-12-31T16:06:13.712Z,100054.81
2022-12-31T16:08:46.055Z,100062.09
2022-12-31T16:11:13.956Z,100051.31
2022-12-31T16:13:43.485Z,100063.44
2022-12-31T16:16:22.486Z,100061.56
2022-12-31T16:18:51.155Z,100068.09
2022-12-31T16:21:39.896Z,100061.50
2022-12-31T16:24:30.031Z,100054.06
2022-12-31T16:27:00.317Z,100053.88
2022-12-31T16:29:28.398Z,100073.13
2022-12-31T16:31:56.726Z,100065.50
2022-12-31T16:34:25.859Z,100067.63
2022-12-31T16:36:58.469Z,100073.47
2022-12-31T16:39:32.703Z,100076.09
2022-12-31T16:42:21.245Z,100050.91
2022-12-31T16:44:51.362Z,100061.63
2022-12-31T16:47:22.421Z,100063.91
2022-12-31T16:49:53.051Z,100062.47
2022-12-31T16:52:27.915Z,100071.09
2022-12-31T16:54:57.522Z,100073.88
2022-12-31T16:57:27.524Z,100079.19
2022-12-31T16:59:56.909Z,100082.63
2022-12-31T17:02:28.574Z,100074.09
2022-12-31T17:04:56.839Z,100068.03
2022-12-31T17:07:42.546Z,100062.47
2022-12-31T17:10:21.592Z,100067.34
2022-12-31T17:15:44.051Z,100065.88
2022-12-31T17:18:18.273Z,100077.47
2022-12-31T17:20:46.201Z,100075.66
2022-12-31T17:23:21.019Z,100071.88
2022-12-31T17:25:50.225Z,100074.53
2022-12-31T17:28:23.103Z,100065.91
2022-12-31T17:30:50.797Z,100057.13
2022-12-31T17:33:31.686Z,100052.97
2022-12-31T17:36:16.097Z,100064.63
2022-12-31T17:38:44.348Z,100071.88
2022-12-31T17:41:24.003Z,100069.75
2022-12-31T17:43:53.407Z,100066.72
2022-12-31T17:46:21.770Z,100065.88
2022-12-31T17:48:52.843Z,100076.94
2022-12-31T17:51:24.646Z,100090.88
2022-12-31T17:53:52.632Z,100082.88
2022-12-31T17:56:21.893Z,100090.06
2022-12-31T17:58:51.394Z,100090.88
2022-12-31T18:01:21.844Z,100094.56
2022-12-31T18:03:50.087Z,100092.97
2022-12-31T18:06:19.264Z,100105.78
2022-12-31T18:08:47.170Z,100105.84
2022-12-31T18:11:17.729Z,100114.59
2022-12-31T18:13:47.062Z,100122.34
2022-12-31T18:16:15.349Z,100113.41
2022-12-31T18:18:45.164Z,100106.63
2022-12-31T18:21:17.628Z,100093.72
2022-12-31T18:23:47.071Z,100102.59
2022-12-31T18:26:16.231Z,100123.81
2022-12-31T18:28:44.115Z,100119.81
2022-12-31T18:31:16.580Z,100108.31
2022-12-31T18:33:44.963Z,100104.00
2022-12-31T18:36:13.879Z,100112.16
2022-12-31T18:38:42.319Z,100108.06
2022-12-31T18:41:17.110Z,100110.59
2022-12-31T18:43:45.034Z,100114.28
2022-12-31T18:46:16.589Z,100103.75
2022-12-31T18:48:44.674Z,100111.88
2022-12-31T18:51:15.136Z,100113.22
2022-12-31T18:53:43.035Z,100108.09
2022-12-31T18:56:12.688Z,100096.97
2022-12-31T18:58:40.628Z,100100.69
2022-12-31T19:01:25.083Z,100088.56
2022-12-31T19:03:53.201Z,100092.66
2022-12-31T19:06:21.087Z,100096.38
2022-12-31T19:08:48.984Z,100085.50
2022-12-31T19:11:16.943Z,100099.41
2022-12-31T19:13:44.940Z,100089.09
2022-12-31T19:16:13.904Z,100086.88
2022-12-31T19:18:43.601Z,100098.09
2022-12-31T19:21:16.668Z,100109.28
2022-12-31T19:23:44.701Z,100097.50
2022-12-31T19:26:16.272Z,100099.31
2022-12-31T19:28:44.794Z,100115.78
2022-12-31T19:31:13.016Z,100113.19
2022-12-31T19:33:41.010Z,100132.47
2022-12-31T19:36:15.378Z,100137.72
2022-12-31T19:38:45.218Z,100131.69
2022-12-31T19:41:17.256Z,100126.78
2022-12-31T19:43:45.783Z,100150.16
2022-12-31T19:46:14.738Z,100127.16
2022-12-31T19:48:42.827Z,100146.31
2022-12-31T19:51:13.769Z,100127.88
2022-12-31T19:53:41.687Z,100127.88
2022-12-31T19:56:12.471Z,100141.25
2022-12-31T19:58:40.339Z,100122.38
2022-12-31T20:01:09.374Z,100117.31
2022-12-31T20:03:37.433Z,100152.84
2022-12-31T20:06:07.801Z,100153.72
2022-12-31T20:08:37.718Z,100156.16
2022-12-31T20:11:09.693Z,100127.72
2022-12-31T20:13:38.021Z,100132.38
2022-12-31T20:16:08.133Z,100114.22
2022-12-31T20:18:37.941Z,100115.84
2022-12-31T20:21:09.362Z,100120.53
2022-12-31T20:23:38.635Z,100134.34
2022-12-31T20:26:06.817Z,100151.56
2022-12-31T20:28:34.731Z,100128.19
2022-12-31T20:31:06.347Z,100155.88
2022-12-31T20:33:34.748Z,100154.22
2022-12-31T20:36:02.994Z,100148.47
2022-12-31T20:38:30.983Z,100169.13
2022-12-31T20:41:05.516Z,100150.97
2022-12-31T20:43:33.824Z,100171.84
2022-12-31T20:46:10.955Z,100134.44
2022-12-31T20:48:42.728Z,100133.81
2022-12-31T20:51:10.813Z,100121.47
2022-12-31T20:53:38.759Z,100118.50
2022-12-31T20:56:09.382Z,100110.03
2022-12-31T20:58:37.451Z,100103.00
2022-12-31T21:01:07.781Z,100120.56
2022-12-31T21:06:24.061Z,100122.75
2022-12-31T21:08:52.069Z,100113.19
2022-12-31T21:11:38.693Z,100109.28
2022-12-31T21:14:06.736Z,100108.44
2022-12-31T21:16:34.608Z,100107.22
2022-12-31T21:19:02.729Z,100113.72
2022-12-31T21:21:30.651Z,100116.91
2022-12-31T21:23:58.503Z,100109.16
2022-12-31T21:26:28.003Z,100116.41
2022-12-31T21:28:55.890Z,100113.72
2022-12-31T21:31:23.770Z,100109.06
2022-12-31T21:33:51.694Z,100114.28
2022-12-31T21:36:19.622Z,100112.25
2022-12-31T21:38:47.467Z,100114.38
2022-12-31T21:41:33.226Z,100113.03
2022-12-31T21:44:03.559Z,100121.38
2022-12-31T21:46:31.641Z,100114.19
2022-12-31T21:49:00.837Z,100106.06
2022-12-31T21:51:29.184Z,100110.81
2022-12-31T21:53:57.409Z,100102.88
2022-12-31T21:56:24.364Z,100109.59
2022-12-31T21:59:15.346Z,100104.25
2022-12-31T22:02:02.742Z,100096.25
2022-12-31T22:07:18.836Z,100102.09
2022-12-31T22:09:46.753Z,100107.19
2022-12-31T22:12:14.627Z,100119.25
2022-12-31T22:15:14.969Z,100120.72
2022-12-31T22:17:31.645Z,100106.75
2022-12-31T22:22:47.483Z,100120.78
2022-12-31T22:25:16.750Z,100118.03
2022-12-31T22:28:04.277Z,100127.47
2022-12-31T22:30:32.957Z,100121.88
2022-12-31T22:33:02.177Z,100134.72
2022-12-31T22:35:30.097Z,100150.06
2022-12-31T22:38:03.276Z,100153.63
2022-12-31T22:40:34.612Z,100161.03
2022-12-31T22:43:02.493Z,100161.16
2022-12-31T22:45:30.627Z,100164.91
2022-12-31T22:47:58.559Z,100178.91
2022-12-31T22:50:27.998Z,100169.59
2022-12-31T22:52:55.837Z,100175.75
2022-12-31T22:55:23.819Z,100189.16
2022-12-31T22:57:52.406Z,100188.13
2022-12-31T23:00:20.365Z,100180.22
2022-12-31T23:02:48.667Z,100188.38
2022-12-31T23:05:17.382Z,100202.16
2022-12-31T23:07:48.915Z,100196.97
2022-12-31T23:10:34.718Z,100195.97
2022-12-31T23:13:16.685Z,100205.75
2022-12-31T23:16:03.374Z,100202.44
2022-12-31T23:18:49.110Z,100196.44
2022-12-31T23:21:34.566Z,100196.72
2022-12-31T23:24:04.448Z,100186.50
2022-12-31T23:26:32.310Z,100187.06
2022-12-31T23:29:00.593Z,100181.97
2022-12-31T23:31:28.912Z,100188.75
2022-12-31T23:33:56.805Z,100181.09
2022-12-31T23:36:24.872Z,100184.66
2022-12-31T23:38:54.814Z,100181.34
2022-12-31T23:41:24.356Z,100186.19
2022-12-31T23:43:52.249Z,100189.59
2022-12-31T23:46:20.120Z,100193.81
2022-12-31T23:48:48.061Z,100184.38
2022-12-31T23:51:15.892Z,100186.28
2022-12-31T23:53:43.749Z,100187.19
2022-12-31T23:56:19.279Z,100180.34
2022-12-31T23:58:56.203Z,100189.16
